sensor_id;sensor_type;location;lat;lon;timestamp;temperature;humidity
16999;DHT22;10211;49.476;11.010;2022-07-17T00:01:13;14.40;95.90
16999;DHT22;10211;49.476;11.010;2022-07-17T00:03:39;14.30;96.40
16999;DHT22;10211;49.476;11.010;2022-07-17T00:06:08;14.30;96.80
16999;DHT22;10211;49.476;11.010;2022-07-17T00:08:34;14.20;97.60
16999;DHT22;10211;49.476;11.010;2022-07-17T00:11:01;14.20;98.20
16999;DHT22;10211;49.476;11.010;2022-07-17T00:13:28;14.10;98.60
16999;DHT22;10211;49.476;11.010;2022-07-17T00:15:55;14.10;99.00
16999;DHT22;10211;49.476;11.010;2022-07-17T00:18:22;14.10;99.40
16999;DHT22;10211;49.476;11.010;2022-07-17T00:20:48;14.00;99.90
16999;DHT22;10211;49.476;11.010;2022-07-17T00:23:17;14.00;99.90
16999;DHT22;10211;49.476;11.010;2022-07-17T00:25:44;13.90;99.90
16999;DHT22;10211;49.476;11.010;2022-07-17T00:28:12;13.90;99.90
16999;DHT22;10211;49.476;11.010;2022-07-17T00:30:38;13.90;99.90
16999;DHT22;10211;49.476;11.010;2022-07-17T00:33:05;13.80;99.90
16999;DHT22;10211;49.476;11.010;2022-07-17T00:35:32;13.80;99.90
16999;DHT22;10211;49.476;11.010;2022-07-17T00:37:59;13.80;99.90
16999;DHT22;10211;49.476;11.010;2022-07-17T00:40:27;13.70;99.90
16999;DHT22;10211;49.476;11.010;2022-07-17T00:42:53;13.70;99.90
16999;DHT22;10211;49.476;11.010;2022-07-17T00:45:20;13.60;99.90
16999;DHT22;10211;49.476;11.010;2022-07-17T00:47:53;13.60;99.90
16999;DHT22;10211;49.476;11.010;2022-07-17T00:50:20;13.60;99.90
16999;DHT22;10211;49.476;11.010;2022-07-17T00:52:47;13.50;99.90
16999;DHT22;10211;49.476;11.010;2022-07-17T00:55:14;13.50;99.90
16999;DHT22;10211;49.476;11.010;2022-07-17T00:57:42;13.50;99.90
16999;DHT22;10211;49.476;11.010;2022-07-17T01:00:12;13.50;99.90
16999;DHT22;10211;49.476;11.010;2022-07-17T01:02:39;13.50;99.90
16999;DHT22;10211;49.476;11.010;2022-07-17T01:05:06;13.40;99.90
16999;DHT22;10211;49.476;11.010;2022-07-17T01:07:33;13.40;99.90
16999;DHT22;10211;49.476;11.010;2022-07-17T01:10:00;13.40;99.90
16999;DHT22;10211;49.476;11.010;2022-07-17T01:12:27;13.40;99.90
16999;DHT22;10211;49.476;11.010;2022-07-17T01:14:55;13.30;99.90
16999;DHT22;10211;49.476;11.010;2022-07-17T01:17:24;13.30;99.90
16999;DHT22;10211;49.476;11.010;2022-07-17T01:19:50;13.20;99.90
16999;DHT22;10211;49.476;11.010;2022-07-17T01:22:19;13.20;99.90
16999;DHT22;10211;49.476;11.010;2022-07-17T01:24:46;13.20;99.90
16999;DHT22;10211;49.476;11.010;2022-07-17T01:27:12;13.10;99.90
16999;DHT22;10211;49.476;11.010;2022-07-17T01:29:39;13.10;99.90
16999;DHT22;10211;49.476;11.010;2022-07-17T01:32:06;13.10;99.90
16999;DHT22;10211;49.476;11.010;2022-07-17T01:34:33;13.00;99.90
16999;DHT22;10211;49.476;11.010;2022-07-17T01:37:00;13.00;99.90
16999;DHT22;10211;49.476;11.010;2022-07-17T01:39:28;12.90;99.90
16999;DHT22;10211;49.476;11.010;2022-07-17T01:42:12;12.90;99.90
16999;DHT22;10211;49.476;11.010;2022-07-17T01:44:38;12.90;99.90
16999;DHT22;10211;49.476;11.010;2022-07-17T01:47:05;12.80;99.90
16999;DHT22;10211;49.476;11.010;2022-07-17T01:49:32;12.80;99.90
16999;DHT22;10211;49.476;11.010;2022-07-17T01:51:59;12.80;99.90
16999;DHT22;10211;49.476;11.010;2022-07-17T01:54:28;12.70;99.90
16999;DHT22;10211;49.476;11.010;2022-07-17T01:56:55;12.70;99.90
16999;DHT22;10211;49.476;11.010;2022-07-17T01:59:22;12.70;99.90
16999;DHT22;10211;49.476;11.010;2022-07-17T02:01:49;12.60;99.90
16999;DHT22;10211;49.476;11.010;2022-07-17T02:04:16;12.60;99.90
16999;DHT22;10211;49.476;11.010;2022-07-17T02:06:43;12.60;99.90
16999;DHT22;10211;49.476;11.010;2022-07-17T02:09:09;12.60;99.90
16999;DHT22;10211;49.476;11.010;2022-07-17T02:11:37;12.60;99.90
16999;DHT22;10211;49.476;11.010;2022-07-17T02:14:04;12.50;99.90
16999;DHT22;10211;49.476;11.010;2022-07-17T02:16:31;12.50;99.90
16999;DHT22;10211;49.476;11.010;2022-07-17T02:18:57;12.50;99.90
16999;DHT22;10211;49.476;11.010;2022-07-17T02:21:24;12.40;99.90
16999;DHT22;10211;49.476;11.010;2022-07-17T02:23:51;12.40;99.90
16999;DHT22;10211;49.476;11.010;2022-07-17T02:26:17;12.40;99.90
16999;DHT22;10211;49.476;11.010;2022-07-17T02:28:45;12.30;99.90
16999;DHT22;10211;49.476;11.010;2022-07-17T02:31:12;12.30;99.90
16999;DHT22;10211;49.476;11.010;2022-07-17T02:33:39;12.30;99.90
16999;DHT22;10211;49.476;11.010;2022-07-17T02:36:06;12.30;99.90
16999;DHT22;10211;49.476;11.010;2022-07-17T02:38:33;12.20;99.90
16999;DHT22;10211;49.476;11.010;2022-07-17T02:41:00;12.20;99.90
16999;DHT22;10211;49.476;11.010;2022-07-17T02:43:26;12.10;99.90
16999;DHT22;10211;49.476;11.010;2022-07-17T02:45:54;12.10;99.90
16999;DHT22;10211;49.476;11.010;2022-07-17T02:48:21;12.10;99.90
16999;DHT22;10211;49.476;11.010;2022-07-17T02:50:48;12.00;99.90
16999;DHT22;10211;49.476;11.010;2022-07-17T02:53:15;12.00;99.90
16999;DHT22;10211;49.476;11.010;2022-07-17T02:55:41;12.00;99.90
16999;DHT22;10211;49.476;11.010;2022-07-17T02:58:08;11.90;99.90
16999;DHT22;10211;49.476;11.010;2022-07-17T03:00:35;11.90;99.90
16999;DHT22;10211;49.476;11.010;2022-07-17T03:03:03;11.90;99.90
16999;DHT22;10211;49.476;11.010;2022-07-17T03:05:30;11.90;99.90
16999;DHT22;10211;49.476;11.010;2022-07-17T03:07:57;11.80;99.90
16999;DHT22;10211;49.476;11.010;2022-07-17T03:10:23;11.80;99.90
16999;DHT22;10211;49.476;11.010;2022-07-17T03:12:50;11.80;99.90
16999;DHT22;10211;49.476;11.010;2022-07-17T03:15:17;11.70;99.90
16999;DHT22;10211;49.476;11.010;2022-07-17T03:17:44;11.70;99.90
16999;DHT22;10211;49.476;11.010;2022-07-17T03:20:12;11.70;99.90
16999;DHT22;10211;49.476;11.010;2022-07-17T03:22:38;11.70;99.90
16999;DHT22;10211;49.476;11.010;2022-07-17T03:25:07;11.70;99.90
16999;DHT22;10211;49.476;11.010;2022-07-17T03:27:34;11.60;99.90
16999;DHT22;10211;49.476;11.010;2022-07-17T03:30:00;11.60;99.90
16999;DHT22;10211;49.476;11.010;2022-07-17T03:32:27;11.60;99.90
16999;DHT22;10211;49.476;11.010;2022-07-17T03:34:54;11.60;99.90
16999;DHT22;10211;49.476;11.010;2022-07-17T03:37:22;11.60;99.90
16999;DHT22;10211;49.476;11.010;2022-07-17T03:39:48;11.50;99.90
16999;DHT22;10211;49.476;11.010;2022-07-17T03:42:15;11.50;99.90
16999;DHT22;10211;49.476;11.010;2022-07-17T03:44:42;11.50;99.90
16999;DHT22;10211;49.476;11.010;2022-07-17T03:47:08;11.50;99.90
16999;DHT22;10211;49.476;11.010;2022-07-17T03:49:35;11.50;99.90
16999;DHT22;10211;49.476;11.010;2022-07-17T03:52:02;11.50;99.90
16999;DHT22;10211;49.476;11.010;2022-07-17T03:54:30;11.60;99.90
16999;DHT22;10211;49.476;11.010;2022-07-17T03:56:57;11.60;99.90
16999;DHT22;10211;49.476;11.010;2022-07-17T03:59:24;11.60;99.90
16999;DHT22;10211;49.476;11.010;2022-07-17T04:01:51;11.60;99.90
16999;DHT22;10211;49.476;11.010;2022-07-17T04:04:19;11.60;99.90
16999;DHT22;10211;49.476;11.010;2022-07-17T04:06:45;11.60;99.90
16999;DHT22;10211;49.476;11.010;2022-07-17T04:09:12;11.60;99.90
16999;DHT22;10211;49.476;11.010;2022-07-17T04:11:40;11.60;99.90
16999;DHT22;10211;49.476;11.010;2022-07-17T04:14:07;11.60;99.90
16999;DHT22;10211;49.476;11.010;2022-07-17T04:16:34;11.60;99.90
16999;DHT22;10211;49.476;11.010;2022-07-17T04:19:00;11.70;99.90
16999;DHT22;10211;49.476;11.010;2022-07-17T04:21:27;11.70;99.90
16999;DHT22;10211;49.476;11.010;2022-07-17T04:23:54;11.70;99.90
16999;DHT22;10211;49.476;11.010;2022-07-17T04:26:21;11.70;99.90
16999;DHT22;10211;49.476;11.010;2022-07-17T04:28:49;11.70;99.90
16999;DHT22;10211;49.476;11.010;2022-07-17T04:31:15;11.80;99.90
16999;DHT22;10211;49.476;11.010;2022-07-17T04:33:42;11.80;99.90
16999;DHT22;10211;49.476;11.010;2022-07-17T04:36:09;11.80;99.90
16999;DHT22;10211;49.476;11.010;2022-07-17T04:38:36;11.90;99.90
16999;DHT22;10211;49.476;11.010;2022-07-17T04:41:02;11.90;99.90
16999;DHT22;10211;49.476;11.010;2022-07-17T04:43:29;11.90;99.90
16999;DHT22;10211;49.476;11.010;2022-07-17T04:45:57;12.00;99.90
16999;DHT22;10211;49.476;11.010;2022-07-17T04:48:24;12.00;99.90
16999;DHT22;10211;49.476;11.010;2022-07-17T04:50:50;12.10;99.90
16999;DHT22;10211;49.476;11.010;2022-07-17T04:53:17;12.10;99.90
16999;DHT22;10211;49.476;11.010;2022-07-17T04:55:44;12.30;99.90
16999;DHT22;10211;49.476;11.010;2022-07-17T04:58:10;12.30;99.90
16999;DHT22;10211;49.476;11.010;2022-07-17T05:00:38;12.40;99.90
16999;DHT22;10211;49.476;11.010;2022-07-17T05:03:06;12.50;99.90
16999;DHT22;10211;49.476;11.010;2022-07-17T05:05:32;12.60;99.90
16999;DHT22;10211;49.476;11.010;2022-07-17T05:07:59;12.70;99.90
16999;DHT22;10211;49.476;11.010;2022-07-17T05:10:26;12.80;99.90
16999;DHT22;10211;49.476;11.010;2022-07-17T05:12:53;12.80;99.90
16999;DHT22;10211;49.476;11.010;2022-07-17T05:15:20;12.90;99.90
16999;DHT22;10211;49.476;11.010;2022-07-17T05:17:46;13.00;99.90
16999;DHT22;10211;49.476;11.010;2022-07-17T05:20:17;13.00;99.90
16999;DHT22;10211;49.476;11.010;2022-07-17T05:22:43;13.10;99.90
16999;DHT22;10211;49.476;11.010;2022-07-17T05:25:10;13.20;99.90
16999;DHT22;10211;49.476;11.010;2022-07-17T05:27:37;13.30;99.90
16999;DHT22;10211;49.476;11.010;2022-07-17T05:30:04;13.40;99.90
16999;DHT22;10211;49.476;11.010;2022-07-17T05:32:31;13.60;99.90
16999;DHT22;10211;49.476;11.010;2022-07-17T05:34:57;13.70;99.90
16999;DHT22;10211;49.476;11.010;2022-07-17T05:37:26;13.80;99.90
16999;DHT22;10211;49.476;11.010;2022-07-17T05:39:52;14.00;99.90
16999;DHT22;10211;49.476;11.010;2022-07-17T05:42:19;14.40;99.90
16999;DHT22;10211;49.476;11.010;2022-07-17T05:44:46;14.70;99.90
16999;DHT22;10211;49.476;11.010;2022-07-17T05:47:13;14.90;99.90
16999;DHT22;10211;49.476;11.010;2022-07-17T05:49:39;15.20;99.90
16999;DHT22;10211;49.476;11.010;2022-07-17T05:52:06;16.20;99.90
16999;DHT22;10211;49.476;11.010;2022-07-17T05:54:34;17.50;98.60
16999;DHT22;10211;49.476;11.010;2022-07-17T05:57:01;18.10;94.90
16999;DHT22;10211;49.476;11.010;2022-07-17T05:59:29;18.20;93.20
16999;DHT22;10211;49.476;11.010;2022-07-17T06:01:56;18.30;92.80
16999;DHT22;10211;49.476;11.010;2022-07-17T06:04:22;18.20;92.30
16999;DHT22;10211;49.476;11.010;2022-07-17T06:06:49;18.10;91.80
16999;DHT22;10211;49.476;11.010;2022-07-17T06:09:16;18.20;91.70
16999;DHT22;10211;49.476;11.010;2022-07-17T06:11:44;18.70;90.20
16999;DHT22;10211;49.476;11.010;2022-07-17T06:14:10;19.00;88.20
16999;DHT22;10211;49.476;11.010;2022-07-17T06:16:37;19.10;87.90
16999;DHT22;10211;49.476;11.010;2022-07-17T06:19:04;19.20;86.90
16999;DHT22;10211;49.476;11.010;2022-07-17T06:21:31;19.20;87.10
16999;DHT22;10211;49.476;11.010;2022-07-17T06:23:57;19.30;86.30
16999;DHT22;10211;49.476;11.010;2022-07-17T06:26:24;19.30;85.00
16999;DHT22;10211;49.476;11.010;2022-07-17T06:28:52;18.90;84.60
16999;DHT22;10211;49.476;11.010;2022-07-17T06:31:19;18.50;85.50
16999;DHT22;10211;49.476;11.010;2022-07-17T06:33:46;18.20;86.70
16999;DHT22;10211;49.476;11.010;2022-07-17T06:36:13;18.00;87.80
16999;DHT22;10211;49.476;11.010;2022-07-17T06:38:40;17.80;88.50
16999;DHT22;10211;49.476;11.010;2022-07-17T06:41:07;17.60;89.00
16999;DHT22;10211;49.476;11.010;2022-07-17T06:43:33;17.50;90.00
16999;DHT22;10211;49.476;11.010;2022-07-17T06:46:01;17.50;90.00
16999;DHT22;10211;49.476;11.010;2022-07-17T06:48:28;17.50;90.20
16999;DHT22;10211;49.476;11.010;2022-07-17T06:50:55;17.40;90.10
16999;DHT22;10211;49.476;11.010;2022-07-17T06:53:22;17.50;90.40
16999;DHT22;10211;49.476;11.010;2022-07-17T06:55:48;17.60;89.50
16999;DHT22;10211;49.476;11.010;2022-07-17T06:58:15;17.80;89.30
16999;DHT22;10211;49.476;11.010;2022-07-17T07:00:42;18.10;88.30
16999;DHT22;10211;49.476;11.010;2022-07-17T07:03:10;18.20;88.00
16999;DHT22;10211;49.476;11.010;2022-07-17T07:05:36;18.30;86.70
16999;DHT22;10211;49.476;11.010;2022-07-17T07:08:04;18.40;86.20
16999;DHT22;10211;49.476;11.010;2022-07-17T07:10:30;18.40;85.30
16999;DHT22;10211;49.476;11.010;2022-07-17T07:12:57;18.60;86.00
16999;DHT22;10211;49.476;11.010;2022-07-17T07:15:24;19.00;84.20
16999;DHT22;10211;49.476;11.010;2022-07-17T07:17:51;19.60;82.70
16999;DHT22;10211;49.476;11.010;2022-07-17T07:20:19;20.10;81.20
16999;DHT22;10211;49.476;11.010;2022-07-17T07:22:46;20.40;79.30
16999;DHT22;10211;49.476;11.010;2022-07-17T07:25:13;20.40;78.50
16999;DHT22;10211;49.476;11.010;2022-07-17T07:27:39;20.30;78.70
16999;DHT22;10211;49.476;11.010;2022-07-17T07:30:07;20.10;79.00
16999;DHT22;10211;49.476;11.010;2022-07-17T07:32:36;20.00;79.00
16999;DHT22;10211;49.476;11.010;2022-07-17T07:35:03;20.00;78.80
16999;DHT22;10211;49.476;11.010;2022-07-17T07:37:32;19.90;78.50
16999;DHT22;10211;49.476;11.010;2022-07-17T07:39:59;19.90;79.30
16999;DHT22;10211;49.476;11.010;2022-07-17T07:42:25;19.90;79.30
16999;DHT22;10211;49.476;11.010;2022-07-17T07:44:52;20.10;79.10
16999;DHT22;10211;49.476;11.010;2022-07-17T07:47:19;20.50;78.70
16999;DHT22;10211;49.476;11.010;2022-07-17T07:49:45;20.80;78.00
16999;DHT22;10211;49.476;11.010;2022-07-17T07:52:12;21.20;76.90
16999;DHT22;10211;49.476;11.010;2022-07-17T07:54:40;21.60;75.60
16999;DHT22;10211;49.476;11.010;2022-07-17T07:57:07;22.00;74.40
16999;DHT22;10211;49.476;11.010;2022-07-17T07:59:34;22.30;72.80
16999;DHT22;10211;49.476;11.010;2022-07-17T08:02:01;22.30;72.00
16999;DHT22;10211;49.476;11.010;2022-07-17T08:04:28;22.30;72.40
16999;DHT22;10211;49.476;11.010;2022-07-17T08:06:54;22.10;72.60
16999;DHT22;10211;49.476;11.010;2022-07-17T08:09:21;21.90;72.80
16999;DHT22;10211;49.476;11.010;2022-07-17T08:11:50;21.60;73.20
16999;DHT22;10211;49.476;11.010;2022-07-17T08:14:17;21.40;74.00
16999;DHT22;10211;49.476;11.010;2022-07-17T08:16:43;21.40;74.60
16999;DHT22;10211;49.476;11.010;2022-07-17T08:19:10;21.40;74.50
16999;DHT22;10211;49.476;11.010;2022-07-17T08:21:37;21.50;74.70
16999;DHT22;10211;49.476;11.010;2022-07-17T08:24:04;21.50;73.40
16999;DHT22;10211;49.476;11.010;2022-07-17T08:26:31;21.50;73.10
16999;DHT22;10211;49.476;11.010;2022-07-17T08:28:59;21.60;72.50
16999;DHT22;10211;49.476;11.010;2022-07-17T08:31:26;21.60;69.50
16999;DHT22;10211;49.476;11.010;2022-07-17T08:33:52;21.80;69.20
16999;DHT22;10211;49.476;11.010;2022-07-17T08:36:19;21.90;67.70
16999;DHT22;10211;49.476;11.010;2022-07-17T08:38:46;22.10;68.40
16999;DHT22;10211;49.476;11.010;2022-07-17T08:41:14;22.30;68.30
16999;DHT22;10211;49.476;11.010;2022-07-17T08:43:42;22.30;67.30
16999;DHT22;10211;49.476;11.010;2022-07-17T08:46:12;22.50;67.90
16999;DHT22;10211;49.476;11.010;2022-07-17T08:48:40;22.60;67.20
16999;DHT22;10211;49.476;11.010;2022-07-17T08:51:08;22.60;67.20
16999;DHT22;10211;49.476;11.010;2022-07-17T08:53:35;22.70;67.50
16999;DHT22;10211;49.476;11.010;2022-07-17T08:56:01;22.80;66.70
16999;DHT22;10211;49.476;11.010;2022-07-17T08:58:29;22.70;65.60
16999;DHT22;10211;49.476;11.010;2022-07-17T09:00:56;22.70;66.10
16999;DHT22;10211;49.476;11.010;2022-07-17T09:03:24;22.80;66.10
16999;DHT22;10211;49.476;11.010;2022-07-17T09:05:51;22.80;64.90
16999;DHT22;10211;49.476;11.010;2022-07-17T09:08:20;22.80;64.70
16999;DHT22;10211;49.476;11.010;2022-07-17T09:10:49;23.00;63.70
16999;DHT22;10211;49.476;11.010;2022-07-17T09:13:18;22.90;63.20
16999;DHT22;10211;49.476;11.010;2022-07-17T09:15:47;23.00;64.10
16999;DHT22;10211;49.476;11.010;2022-07-17T09:18:15;23.00;63.30
16999;DHT22;10211;49.476;11.010;2022-07-17T09:20:49;23.10;63.50
16999;DHT22;10211;49.476;11.010;2022-07-17T09:23:18;23.10;62.90
16999;DHT22;10211;49.476;11.010;2022-07-17T09:25:47;23.20;63.60
16999;DHT22;10211;49.476;11.010;2022-07-17T09:28:15;23.30;62.90
16999;DHT22;10211;49.476;11.010;2022-07-17T09:30:44;23.40;62.80
16999;DHT22;10211;49.476;11.010;2022-07-17T09:33:16;23.50;62.60
16999;DHT22;10211;49.476;11.010;2022-07-17T09:35:53;23.60;62.40
16999;DHT22;10211;49.476;11.010;2022-07-17T09:38:30;23.80;61.20
16999;DHT22;10211;49.476;11.010;2022-07-17T09:41:05;24.00;60.60
16999;DHT22;10211;49.476;11.010;2022-07-17T09:43:40;24.00;60.40
16999;DHT22;10211;49.476;11.010;2022-07-17T09:46:08;24.40;60.00
16999;DHT22;10211;49.476;11.010;2022-07-17T09:48:35;26.00;57.50
16999;DHT22;10211;49.476;11.010;2022-07-17T09:51:08;29.10;54.50
16999;DHT22;10211;49.476;11.010;2022-07-17T09:53:36;33.10;48.40
16999;DHT22;10211;49.476;11.010;2022-07-17T09:56:05;36.60;42.90
16999;DHT22;10211;49.476;11.010;2022-07-17T09:58:35;38.30;39.40
16999;DHT22;10211;49.476;11.010;2022-07-17T10:01:02;40.00;36.70
16999;DHT22;10211;49.476;11.010;2022-07-17T10:03:29;41.10;35.00
16999;DHT22;10211;49.476;11.010;2022-07-17T10:05:56;42.50;33.70
16999;DHT22;10211;49.476;11.010;2022-07-17T10:08:24;43.90;32.70
16999;DHT22;10211;49.476;11.010;2022-07-17T10:10:51;45.20;30.80
16999;DHT22;10211;49.476;11.010;2022-07-17T10:13:18;45.90;30.00
16999;DHT22;10211;49.476;11.010;2022-07-17T10:15:45;45.50;30.00
16999;DHT22;10211;49.476;11.010;2022-07-17T10:18:12;45.10;30.00
16999;DHT22;10211;49.476;11.010;2022-07-17T10:20:39;45.50;29.50
16999;DHT22;10211;49.476;11.010;2022-07-17T10:23:13;44.30;29.20
16999;DHT22;10211;49.476;11.010;2022-07-17T10:25:41;44.10;29.60
16999;DHT22;10211;49.476;11.010;2022-07-17T10:28:08;43.80;29.70
16999;DHT22;10211;49.476;11.010;2022-07-17T10:30:41;45.00;29.30
16999;DHT22;10211;49.476;11.010;2022-07-17T10:33:09;45.00;28.60
16999;DHT22;10211;49.476;11.010;2022-07-17T10:35:43;45.50;28.60
16999;DHT22;10211;49.476;11.010;2022-07-17T10:38:12;45.30;28.90
16999;DHT22;10211;49.476;11.010;2022-07-17T10:40:42;45.90;28.50
16999;DHT22;10211;49.476;11.010;2022-07-17T10:43:10;47.00;27.90
16999;DHT22;10211;49.476;11.010;2022-07-17T10:45:38;47.50;27.60
16999;DHT22;10211;49.476;11.010;2022-07-17T10:48:07;47.90;27.50
16999;DHT22;10211;49.476;11.010;2022-07-17T10:50:35;47.80;27.20
16999;DHT22;10211;49.476;11.010;2022-07-17T10:53:06;47.30;26.90
16999;DHT22;10211;49.476;11.010;2022-07-17T10:55:34;47.70;27.10
16999;DHT22;10211;49.476;11.010;2022-07-17T10:58:03;47.70;26.90
16999;DHT22;10211;49.476;11.010;2022-07-17T11:00:30;47.80;26.80
16999;DHT22;10211;49.476;11.010;2022-07-17T11:02:57;48.40;26.70
16999;DHT22;10211;49.476;11.010;2022-07-17T11:05:33;49.10;25.60
16999;DHT22;10211;49.476;11.010;2022-07-17T11:08:00;48.90;25.90
16999;DHT22;10211;49.476;11.010;2022-07-17T11:10:28;48.80;25.70
16999;DHT22;10211;49.476;11.010;2022-07-17T11:13:09;47.70;26.00
16999;DHT22;10211;49.476;11.010;2022-07-17T11:15:40;47.70;26.40
16999;DHT22;10211;49.476;11.010;2022-07-17T11:18:10;47.20;26.50
16999;DHT22;10211;49.476;11.010;2022-07-17T11:20:52;47.10;25.70
16999;DHT22;10211;49.476;11.010;2022-07-17T11:23:22;47.30;25.50
16999;DHT22;10211;49.476;11.010;2022-07-17T11:25:58;47.10;25.60
16999;DHT22;10211;49.476;11.010;2022-07-17T11:28:37;47.30;26.20
16999;DHT22;10211;49.476;11.010;2022-07-17T11:31:16;47.10;26.40
16999;DHT22;10211;49.476;11.010;2022-07-17T11:33:52;47.30;26.60
16999;DHT22;10211;49.476;11.010;2022-07-17T11:36:27;46.70;26.70
16999;DHT22;10211;49.476;11.010;2022-07-17T11:38:56;46.80;26.60
16999;DHT22;10211;49.476;11.010;2022-07-17T11:41:32;47.00;26.20
16999;DHT22;10211;49.476;11.010;2022-07-17T11:44:00;46.50;25.60
16999;DHT22;10211;49.476;11.010;2022-07-17T11:46:28;44.90;26.40
16999;DHT22;10211;49.476;11.010;2022-07-17T11:48:55;44.80;27.00
16999;DHT22;10211;49.476;11.010;2022-07-17T11:51:33;45.10;27.00
16999;DHT22;10211;49.476;11.010;2022-07-17T11:54:03;45.40;25.70
16999;DHT22;10211;49.476;11.010;2022-07-17T11:56:30;44.80;25.70
16999;DHT22;10211;49.476;11.010;2022-07-17T11:58:57;45.10;25.50
16999;DHT22;10211;49.476;11.010;2022-07-17T12:01:28;45.00;25.40
16999;DHT22;10211;49.476;11.010;2022-07-17T12:03:57;44.60;25.80
16999;DHT22;10211;49.476;11.010;2022-07-17T12:06:24;44.70;26.00
16999;DHT22;10211;49.476;11.010;2022-07-17T12:08:52;44.40;26.30
16999;DHT22;10211;49.476;11.010;2022-07-17T12:11:18;44.60;27.10
16999;DHT22;10211;49.476;11.010;2022-07-17T12:13:46;44.70;26.80
16999;DHT22;10211;49.476;11.010;2022-07-17T12:16:21;44.20;26.80
16999;DHT22;10211;49.476;11.010;2022-07-17T12:18:58;43.20;27.30
16999;DHT22;10211;49.476;11.010;2022-07-17T12:21:25;43.00;27.60
16999;DHT22;10211;49.476;11.010;2022-07-17T12:24:03;43.50;27.30
16999;DHT22;10211;49.476;11.010;2022-07-17T12:26:30;43.50;27.30
16999;DHT22;10211;49.476;11.010;2022-07-17T12:28:57;43.60;27.50
16999;DHT22;10211;49.476;11.010;2022-07-17T12:31:24;44.10;27.60
16999;DHT22;10211;49.476;11.010;2022-07-17T12:33:52;43.90;27.30
16999;DHT22;10211;49.476;11.010;2022-07-17T12:36:21;43.50;27.60
16999;DHT22;10211;49.476;11.010;2022-07-17T12:38:48;43.20;27.40
16999;DHT22;10211;49.476;11.010;2022-07-17T12:41:15;43.30;27.20
16999;DHT22;10211;49.476;11.010;2022-07-17T12:43:43;43.00;27.30
16999;DHT22;10211;49.476;11.010;2022-07-17T12:46:10;42.10;27.20
16999;DHT22;10211;49.476;11.010;2022-07-17T12:48:37;41.60;27.70
16999;DHT22;10211;49.476;11.010;2022-07-17T12:51:05;41.50;27.60
16999;DHT22;10211;49.476;11.010;2022-07-17T12:53:34;41.30;28.20
16999;DHT22;10211;49.476;11.010;2022-07-17T12:56:02;41.10;28.30
16999;DHT22;10211;49.476;11.010;2022-07-17T12:58:29;40.80;28.30
16999;DHT22;10211;49.476;11.010;2022-07-17T13:00:55;40.20;28.60
16999;DHT22;10211;49.476;11.010;2022-07-17T13:03:22;39.70;29.10
16999;DHT22;10211;49.476;11.010;2022-07-17T13:05:49;39.00;29.50
16999;DHT22;10211;49.476;11.010;2022-07-17T13:08:15;38.10;29.60
16999;DHT22;10211;49.476;11.010;2022-07-17T13:10:43;36.90;30.10
16999;DHT22;10211;49.476;11.010;2022-07-17T13:13:10;35.60;30.40
16999;DHT22;10211;49.476;11.010;2022-07-17T13:15:37;34.60;32.00
16999;DHT22;10211;49.476;11.010;2022-07-17T13:18:04;33.70;31.90
16999;DHT22;10211;49.476;11.010;2022-07-17T13:20:30;33.20;32.50
16999;DHT22;10211;49.476;11.010;2022-07-17T13:22:57;32.70;32.60
16999;DHT22;10211;49.476;11.010;2022-07-17T13:25:24;32.30;32.10
16999;DHT22;10211;49.476;11.010;2022-07-17T13:27:52;31.80;32.80
16999;DHT22;10211;49.476;11.010;2022-07-17T13:30:18;31.50;32.60
16999;DHT22;10211;49.476;11.010;2022-07-17T13:32:45;31.30;32.30
16999;DHT22;10211;49.476;11.010;2022-07-17T13:35:12;31.00;33.00
16999;DHT22;10211;49.476;11.010;2022-07-17T13:37:39;30.80;34.00
16999;DHT22;10211;49.476;11.010;2022-07-17T13:40:06;30.40;35.00
16999;DHT22;10211;49.476;11.010;2022-07-17T13:42:33;30.30;35.60
16999;DHT22;10211;49.476;11.010;2022-07-17T13:45:02;30.20;35.90
16999;DHT22;10211;49.476;11.010;2022-07-17T13:47:28;30.20;35.80
16999;DHT22;10211;49.476;11.010;2022-07-17T13:49:55;30.10;36.30
16999;DHT22;10211;49.476;11.010;2022-07-17T13:52:22;30.10;36.80
16999;DHT22;10211;49.476;11.010;2022-07-17T13:54:49;30.20;35.70
16999;DHT22;10211;49.476;11.010;2022-07-17T13:57:15;30.20;35.30
16999;DHT22;10211;49.476;11.010;2022-07-17T13:59:42;30.00;35.40
16999;DHT22;10211;49.476;11.010;2022-07-17T14:02:11;30.10;35.00
16999;DHT22;10211;49.476;11.010;2022-07-17T14:04:37;30.10;35.60
16999;DHT22;10211;49.476;11.010;2022-07-17T14:07:05;30.30;35.20
16999;DHT22;10211;49.476;11.010;2022-07-17T14:09:32;30.30;35.20
16999;DHT22;10211;49.476;11.010;2022-07-17T14:11:58;30.20;34.20
16999;DHT22;10211;49.476;11.010;2022-07-17T14:14:25;30.10;35.00
16999;DHT22;10211;49.476;11.010;2022-07-17T14:16:52;30.10;34.10
16999;DHT22;10211;49.476;11.010;2022-07-17T14:19:20;30.20;35.20
16999;DHT22;10211;49.476;11.010;2022-07-17T14:21:47;30.30;35.00
16999;DHT22;10211;49.476;11.010;2022-07-17T14:24:15;30.30;34.50
16999;DHT22;10211;49.476;11.010;2022-07-17T14:26:42;30.30;33.70
16999;DHT22;10211;49.476;11.010;2022-07-17T14:29:10;30.20;33.90
16999;DHT22;10211;49.476;11.010;2022-07-17T14:31:37;30.30;33.70
16999;DHT22;10211;49.476;11.010;2022-07-17T14:34:03;30.40;33.20
16999;DHT22;10211;49.476;11.010;2022-07-17T14:36:31;30.40;32.70
16999;DHT22;10211;49.476;11.010;2022-07-17T14:38:58;30.50;33.20
16999;DHT22;10211;49.476;11.010;2022-07-17T14:41:25;30.20;33.20
16999;DHT22;10211;49.476;11.010;2022-07-17T14:43:52;30.20;33.40
16999;DHT22;10211;49.476;11.010;2022-07-17T14:46:19;30.40;33.50
16999;DHT22;10211;49.476;11.010;2022-07-17T14:48:46;30.50;32.80
16999;DHT22;10211;49.476;11.010;2022-07-17T14:51:13;30.60;32.90
16999;DHT22;10211;49.476;11.010;2022-07-17T14:53:41;30.60;32.50
16999;DHT22;10211;49.476;11.010;2022-07-17T14:56:08;30.70;32.50
16999;DHT22;10211;49.476;11.010;2022-07-17T14:58:35;30.80;31.50
16999;DHT22;10211;49.476;11.010;2022-07-17T15:01:02;30.90;32.00
16999;DHT22;10211;49.476;11.010;2022-07-17T15:03:28;30.90;31.60
16999;DHT22;10211;49.476;11.010;2022-07-17T15:05:56;30.80;31.30
16999;DHT22;10211;49.476;11.010;2022-07-17T15:08:23;30.80;32.10
16999;DHT22;10211;49.476;11.010;2022-07-17T15:10:51;30.80;31.70
16999;DHT22;10211;49.476;11.010;2022-07-17T15:13:17;30.80;31.10
16999;DHT22;10211;49.476;11.010;2022-07-17T15:15:44;30.70;30.40
16999;DHT22;10211;49.476;11.010;2022-07-17T15:18:12;30.70;31.20